sensor_id;sensor_type;location;lat;lon;timestamp;pressure;altitude;pressure_sealevel;temperature;humidity
28630;BME280;15817;42.130;24.762;2023-03-21T00:14:47;99823.63;;;12.27;68.79
28630;BME280;15817;42.130;24.762;2023-03-21T00:17:13;99823.63;;;12.27;68.56
28630;BME280;15817;42.130;24.762;2023-03-21T00:19:40;99816.66;;;12.19;69.09
28630;BME280;15817;42.130;24.762;2023-03-21T00:22:14;99814.00;;;12.17;69.04
28630;BME280;15817;42.130;24.762;2023-03-21T00:24:46;99814.00;;;12.19;69.12
28630;BME280;15817;42.130;24.762;2023-03-21T00:27:18;99805.13;;;12.15;69.35
28630;BME280;15817;42.130;24.762;2023-03-21T00:29:48;99811.38;;;12.14;69.57
28630;BME280;15817;42.130;24.762;2023-03-21T00:32:17;99808.72;;;12.14;69.64
28630;BME280;15817;42.130;24.762;2023-03-21T00:34:46;99806.03;;;12.14;69.51
28630;BME280;15817;42.130;24.762;2023-03-21T00:37:14;99797.22;;;12.11;69.72
28630;BME280;15817;42.130;24.762;2023-03-21T00:39:45;99797.28;;;12.06;69.77
28630;BME280;15817;42.130;24.762;2023-03-21T00:42:16;99788.38;;;12.06;70.16
28630;BME280;15817;42.130;24.762;2023-03-21T00:44:42;99788.38;;;12.06;70.01
28630;BME280;15817;42.130;24.762;2023-03-21T00:47:12;99783.97;;;12.05;70.03
28630;BME280;15817;42.130;24.762;2023-03-21T00:49:41;99787.53;;;12.02;70.29
28630;BME280;15817;42.130;24.762;2023-03-21T00:52:08;99783.19;;;11.95;70.44
28630;BME280;15817;42.130;24.762;2023-03-21T00:54:36;99777.00;;;11.94;70.44
28630;BME280;15817;42.130;24.762;2023-03-21T00:57:07;99772.53;;;11.95;70.63
28630;BME280;15817;42.130;24.762;2023-03-21T00:59:35;99760.09;;;11.95;70.76
28630;BME280;15817;42.130;24.762;2023-03-21T01:02:03;99766.31;;;11.96;70.57
28630;BME280;15817;42.130;24.762;2023-03-21T01:04:34;99766.31;;;11.96;70.58
28630;BME280;15817;42.130;24.762;2023-03-21T01:07:07;99758.31;;;11.98;70.98
28630;BME280;15817;42.130;24.762;2023-03-21T01:09:33;99764.53;;;11.95;71.12
28630;BME280;15817;42.130;24.762;2023-03-21T01:12:02;99748.59;;;11.90;71.41
28630;BME280;15817;42.130;24.762;2023-03-21T01:14:37;99756.59;;;11.89;71.42
28630;BME280;15817;42.130;24.762;2023-03-21T01:17:07;99751.34;;;11.87;71.43
28630;BME280;15817;42.130;24.762;2023-03-21T01:19:33;99736.25;;;11.85;71.55
28630;BME280;15817;42.130;24.762;2023-03-21T01:22:03;99760.22;;;11.88;71.46
28630;BME280;15817;42.130;24.762;2023-03-21T01:24:32;99753.16;;;11.82;71.39
28630;BME280;15817;42.130;24.762;2023-03-21T01:27:00;99740.72;;;11.81;71.53
28630;BME280;15817;42.130;24.762;2023-03-21T01:29:31;99738.97;;;11.80;72.05
28630;BME280;15817;42.130;24.762;2023-03-21T01:31:59;99742.59;;;11.76;72.44
28630;BME280;15817;42.130;24.762;2023-03-21T01:34:28;99745.16;;;11.84;72.34
28630;BME280;15817;42.130;24.762;2023-03-21T01:36:58;99743.41;;;11.81;73.10
28630;BME280;15817;42.130;24.762;2023-03-21T01:39:26;99739.81;;;11.84;74.29
28630;BME280;15817;42.130;24.762;2023-03-21T01:41:59;99724.72;;;11.83;75.25
28630;BME280;15817;42.130;24.762;2023-03-21T01:44:28;99726.41;;;11.90;76.79
28630;BME280;15817;42.130;24.762;2023-03-21T01:46:58;99722.78;;;11.94;77.67
28630;BME280;15817;42.130;24.762;2023-03-21T01:49:49;99719.28;;;11.90;78.82
28630;BME280;15817;42.130;24.762;2023-03-21T01:52:20;99708.72;;;11.86;78.25
28630;BME280;15817;42.130;24.762;2023-03-21T01:54:55;99718.47;;;11.85;76.50
28630;BME280;15817;42.130;24.762;2023-03-21T01:57:28;99705.28;;;11.76;76.84
28630;BME280;15817;42.130;24.762;2023-03-21T02:00:03;99706.19;;;11.77;77.65
28630;BME280;15817;42.130;24.762;2023-03-21T02:03:07;99703.47;;;11.78;78.27
28630;BME280;15817;42.130;24.762;2023-03-21T02:06:04;99698.94;;;11.85;79.01
28630;BME280;15817;42.130;24.762;2023-03-21T02:08:38;99703.38;;;11.87;79.35
28630;BME280;15817;42.130;24.762;2023-03-21T02:11:08;99706.94;;;11.86;79.22
28630;BME280;15817;42.130;24.762;2023-03-21T02:13:41;99688.34;;;11.79;79.99
28630;BME280;15817;42.130;24.762;2023-03-21T02:27:16;99692.81;;;11.78;81.63
28630;BME280;15817;42.130;24.762;2023-03-21T02:45:40;99718.78;;;11.59;81.55
28630;BME280;15817;42.130;24.762;2023-03-21T02:48:33;99724.09;;;11.59;82.04
28630;BME280;15817;42.130;24.762;2023-03-21T02:51:11;99717.94;;;11.54;82.17
28630;BME280;15817;42.130;24.762;2023-03-21T02:57:41;99713.59;;;11.47;81.59
28630;BME280;15817;42.130;24.762;2023-03-21T03:00:35;99725.13;;;11.49;81.99
28630;BME280;15817;42.130;24.762;2023-03-21T03:03:38;99717.19;;;11.43;82.45
28630;BME280;15817;42.130;24.762;2023-03-21T03:06:35;99721.59;;;11.47;82.93
28630;BME280;15817;42.130;24.762;2023-03-21T03:12:48;99725.16;;;11.45;83.63
28630;BME280;15817;42.130;24.762;2023-03-21T03:19:23;99736.94;;;11.27;84.07
28630;BME280;15817;42.130;24.762;2023-03-21T03:22:09;99735.13;;;11.29;83.89
28630;BME280;15817;42.130;24.762;2023-03-21T03:24:56;99730.69;;;11.28;84.25
28630;BME280;15817;42.130;24.762;2023-03-21T03:27:29;99732.50;;;11.26;83.91
28630;BME280;15817;42.130;24.762;2023-03-21T03:30:04;99746.69;;;11.28;84.55
28630;BME280;15817;42.130;24.762;2023-03-21T03:32:38;99736.94;;;11.25;84.55
28630;BME280;15817;42.130;24.762;2023-03-21T03:35:12;99729.00;;;11.21;84.76
28630;BME280;15817;42.130;24.762;2023-03-21T03:37:44;99731.69;;;11.18;84.78
28630;BME280;15817;42.130;24.762;2023-03-21T03:40:19;99735.22;;;11.20;84.98
28630;BME280;15817;42.130;24.762;2023-03-21T03:43:12;99736.13;;;11.19;85.04
28630;BME280;15817;42.130;24.762;2023-03-21T03:45:49;99716.66;;;11.14;85.23
28630;BME280;15817;42.130;24.762;2023-03-21T03:48:28;99713.97;;;11.17;85.13
28630;BME280;15817;42.130;24.762;2023-03-21T03:51:22;99719.28;;;11.17;84.29
28630;BME280;15817;42.130;24.762;2023-03-21T03:54:20;99718.44;;;11.13;83.77
28630;BME280;15817;42.130;24.762;2023-03-21T03:56:51;99711.34;;;11.11;83.17
28630;BME280;15817;42.130;24.762;2023-03-21T03:59:23;99727.31;;;11.14;82.86
28630;BME280;15817;42.130;24.762;2023-03-21T04:02:14;99713.16;;;11.09;82.23
28630;BME280;15817;42.130;24.762;2023-03-21T04:04:43;99720.22;;;11.10;81.84
28630;BME280;15817;42.130;24.762;2023-03-21T04:07:13;99714.03;;;11.08;81.21
28630;BME280;15817;42.130;24.762;2023-03-21T04:09:42;99713.22;;;11.04;80.48
28630;BME280;15817;42.130;24.762;2023-03-21T04:12:17;99714.13;;;10.99;80.38
28630;BME280;15817;42.130;24.762;2023-03-21T04:15:18;99724.84;;;10.96;80.33
28630;BME280;15817;42.130;24.762;2023-03-21T04:17:52;99732.84;;;10.94;80.29
28630;BME280;15817;42.130;24.762;2023-03-21T04:20:18;99731.09;;;10.90;80.13
28630;BME280;15817;42.130;24.762;2023-03-21T04:22:44;99720.47;;;10.85;80.03
28630;BME280;15817;42.130;24.762;2023-03-21T04:25:12;99738.22;;;10.86;80.14
28630;BME280;15817;42.130;24.762;2023-03-21T04:27:46;99731.16;;;10.82;80.46
28630;BME280;15817;42.130;24.762;2023-03-21T04:30:35;99734.75;;;10.77;80.72
28630;BME280;15817;42.130;24.762;2023-03-21T04:33:13;99742.72;;;10.78;80.89
28630;BME280;15817;42.130;24.762;2023-03-21T04:35:58;99741.84;;;10.76;81.12
28630;BME280;15817;42.130;24.762;2023-03-21T04:38:30;99733.88;;;10.76;80.68
28630;BME280;15817;42.130;24.762;2023-03-21T04:40:59;99740.13;;;10.72;81.09
28630;BME280;15817;42.130;24.762;2023-03-21T04:43:28;99745.38;;;10.77;81.16
28630;BME280;15817;42.130;24.762;2023-03-21T04:45:57;99746.28;;;10.74;82.24
28630;BME280;15817;42.130;24.762;2023-03-21T04:48:23;99746.28;;;10.76;84.34
28630;BME280;15817;42.130;24.762;2023-03-21T04:50:59;99742.78;;;10.72;85.36
28630;BME280;15817;42.130;24.762;2023-03-21T04:53:27;99750.69;;;10.81;85.60
28630;BME280;15817;42.130;24.762;2023-03-21T04:55:53;99748.94;;;10.77;85.49
28630;BME280;15817;42.130;24.762;2023-03-21T04:58:28;99749.88;;;10.72;86.47
28630;BME280;15817;42.130;24.762;2023-03-21T05:01:09;99758.69;;;10.80;86.55
28630;BME280;15817;42.130;24.762;2023-03-21T05:03:35;99756.06;;;10.74;86.74
28630;BME280;15817;42.130;24.762;2023-03-21T05:06:06;99761.38;;;10.74;86.75
28630;BME280;15817;42.130;24.762;2023-03-21T05:08:36;99757.81;;;10.76;86.49
28630;BME280;15817;42.130;24.762;2023-03-21T05:11:03;99767.53;;;10.79;86.89
28630;BME280;15817;42.130;24.762;2023-03-21T05:13:39;99767.56;;;10.77;86.93
28630;BME280;15817;42.130;24.762;2023-03-21T05:16:26;99770.19;;;10.83;86.77
28630;BME280;15817;42.130;24.762;2023-03-21T05:18:56;99764.88;;;10.83;86.64
28630;BME280;15817;42.130;24.762;2023-03-21T05:21:32;99756.91;;;10.77;86.91
28630;BME280;15817;42.130;24.762;2023-03-21T05:24:19;99757.81;;;10.78;87.00
28630;BME280;15817;42.130;24.762;2023-03-21T05:26:50;99756.84;;;10.85;86.75
28630;BME280;15817;42.130;24.762;2023-03-21T05:29:43;99759.47;;;10.91;86.95
28630;BME280;15817;42.130;24.762;2023-03-21T05:32:12;99749.69;;;10.93;86.76
28630;BME280;15817;42.130;24.762;2023-03-21T05:34:38;99739.06;;;10.90;87.08
28630;BME280;15817;42.130;24.762;2023-03-21T05:37:12;99740.81;;;10.94;87.02
28630;BME280;15817;42.130;24.762;2023-03-21T05:39:50;99747.13;;;10.81;86.16
28630;BME280;15817;42.130;24.762;2023-03-21T05:42:37;99748.84;;;10.85;86.23
28630;BME280;15817;42.130;24.762;2023-03-21T05:45:24;99752.41;;;10.85;85.87
28630;BME280;15817;42.130;24.762;2023-03-21T05:47:54;99760.38;;;10.88;85.78
28630;BME280;15817;42.130;24.762;2023-03-21T05:50:24;99755.09;;;10.84;85.89
28630;BME280;15817;42.130;24.762;2023-03-21T05:53:15;99760.38;;;10.87;86.03
28630;BME280;15817;42.130;24.762;2023-03-21T05:55:47;99747.06;;;10.87;85.91
28630;BME280;15817;42.130;24.762;2023-03-21T05:58:29;99765.69;;;10.87;86.73
28630;BME280;15817;42.130;24.762;2023-03-21T06:01:08;99759.50;;;10.85;88.02
28630;BME280;15817;42.130;24.762;2023-03-21T06:04:01;99751.50;;;10.86;87.92
28630;BME280;15817;42.130;24.762;2023-03-21T06:06:39;99755.03;;;10.92;88.23
28630;BME280;15817;42.130;24.762;2023-03-21T06:09:14;99755.09;;;10.84;88.91
28630;BME280;15817;42.130;24.762;2023-03-21T06:11:55;99763.91;;;10.89;88.76
28630;BME280;15817;42.130;24.762;2023-03-21T06:14:42;99770.91;;;10.98;88.48
28630;BME280;15817;42.130;24.762;2023-03-21T06:17:21;99753.16;;;11.01;88.25
28630;BME280;15817;42.130;24.762;2023-03-21T06:19:53;99753.16;;;11.03;88.10
28630;BME280;15817;42.130;24.762;2023-03-21T06:22:42;99751.38;;;11.00;88.44
28630;BME280;15817;42.130;24.762;2023-03-21T06:25:10;99747.88;;;10.97;88.42
28630;BME280;15817;42.130;24.762;2023-03-21T06:27:39;99757.59;;;11.01;88.48
28630;BME280;15817;42.130;24.762;2023-03-21T06:30:08;99754.03;;;11.05;88.47
28630;BME280;15817;42.130;24.762;2023-03-21T06:35:34;99758.34;;;11.15;88.39
28630;BME280;15817;42.130;24.762;2023-03-21T06:38:03;99772.53;;;11.18;89.05
28630;BME280;15817;42.130;24.762;2023-03-21T06:40:48;99759.28;;;11.09;89.95
28630;BME280;15817;42.130;24.762;2023-03-21T06:43:40;99759.28;;;11.08;90.29
28630;BME280;15817;42.130;24.762;2023-03-21T06:46:21;99765.44;;;11.14;90.11
28630;BME280;15817;42.130;24.762;2023-03-21T06:51:45;99772.44;;;11.23;90.83
28630;BME280;15817;42.130;24.762;2023-03-21T06:54:16;99760.00;;;11.27;90.10
28630;BME280;15817;42.130;24.762;2023-03-21T06:57:01;99762.56;;;11.36;90.38
28630;BME280;15817;42.130;24.762;2023-03-21T06:59:37;99762.56;;;11.37;90.47
28630;BME280;15817;42.130;24.762;2023-03-21T07:02:11;99765.22;;;11.37;90.85
28630;BME280;15817;42.130;24.762;2023-03-21T07:04:43;99782.06;;;11.39;91.55
28630;BME280;15817;42.130;24.762;2023-03-21T07:07:15;99773.94;;;11.51;91.02
28630;BME280;15817;42.130;24.762;2023-03-21T07:09:49;99778.31;;;11.55;90.41
28630;BME280;15817;42.130;24.762;2023-03-21T07:12:16;99774.72;;;11.58;91.29
28630;BME280;15817;42.130;24.762;2023-03-21T07:15:09;99769.31;;;11.66;90.42
28630;BME280;15817;42.130;24.762;2023-03-21T07:17:40;99769.25;;;11.76;89.40
28630;BME280;15817;42.130;24.762;2023-03-21T07:20:08;99765.63;;;11.79;89.74
28630;BME280;15817;42.130;24.762;2023-03-21T07:22:40;99766.34;;;11.93;89.11
28630;BME280;15817;42.130;24.762;2023-03-21T07:25:09;99762.66;;;12.03;89.40
28630;BME280;15817;42.130;24.762;2023-03-21T07:28:10;99757.19;;;12.12;88.92
28630;BME280;15817;42.130;24.762;2023-03-21T07:31:00;99763.19;;;12.28;88.22
28630;BME280;15817;42.130;24.762;2023-03-21T07:37:01;99760.50;;;12.29;88.05
28630;BME280;15817;42.130;24.762;2023-03-21T07:39:42;99756.81;;;12.38;87.58
28630;BME280;15817;42.130;24.762;2023-03-21T07:42:22;99762.13;;;12.40;87.22
28630;BME280;15817;42.130;24.762;2023-03-21T07:45:38;99762.88;;;12.48;87.09
28630;BME280;15817;42.130;24.762;2023-03-21T07:48:28;99756.50;;;12.58;87.72
28630;BME280;15817;42.130;24.762;2023-03-21T07:51:21;99758.00;;;12.76;86.81
28630;BME280;15817;42.130;24.762;2023-03-21T07:54:06;99748.00;;;12.88;85.66
28630;BME280;15817;42.130;24.762;2023-03-21T07:57:51;99755.78;;;13.02;85.17
28630;BME280;15817;42.130;24.762;2023-03-21T08:00:20;99746.06;;;12.96;84.72
28630;BME280;15817;42.130;24.762;2023-03-21T08:03:09;99737.66;;;13.21;84.73
28630;BME280;15817;42.130;24.762;2023-03-21T08:06:19;99734.13;;;13.19;84.16
28630;BME280;15817;42.130;24.762;2023-03-21T08:09:13;99727.84;;;13.21;83.92
28630;BME280;15817;42.130;24.762;2023-03-21T08:12:10;99733.91;;;13.31;83.94
28630;BME280;15817;42.130;24.762;2023-03-21T08:14:57;99754.25;;;13.38;83.83
28630;BME280;15817;42.130;24.762;2023-03-21T08:17:54;99722.31;;;13.32;83.11
28630;BME280;15817;42.130;24.762;2023-03-21T08:20:44;99729.34;;;13.37;82.60
28630;BME280;15817;42.130;24.762;2023-03-21T08:23:25;99740.78;;;13.44;82.43
28630;BME280;15817;42.130;24.762;2023-03-21T08:25:52;99745.16;;;13.48;81.75
28630;BME280;15817;42.130;24.762;2023-03-21T08:28:19;99737.97;;;13.50;81.42
28630;BME280;15817;42.130;24.762;2023-03-21T08:30:46;99734.28;;;13.57;80.75
28630;BME280;15817;42.130;24.762;2023-03-21T08:33:12;99728.03;;;13.58;79.47
28630;BME280;15817;42.130;24.762;2023-03-21T08:35:38;99735.84;;;13.67;80.19
28630;BME280;15817;42.130;24.762;2023-03-21T08:38:10;99742.94;;;13.68;80.46
28630;BME280;15817;42.130;24.762;2023-03-21T08:40:38;99736.72;;;13.68;80.47
28630;BME280;15817;42.130;24.762;2023-03-21T08:43:04;99734.91;;;13.70;80.32
28630;BME280;15817;42.130;24.762;2023-03-21T08:45:30;99730.50;;;13.67;79.38
28630;BME280;15817;42.130;24.762;2023-03-21T08:47:56;99733.16;;;13.69;78.48
28630;BME280;15817;42.130;24.762;2023-03-21T08:50:24;99733.13;;;13.70;78.50
28630;BME280;15817;42.130;24.762;2023-03-21T08:52:51;99727.88;;;13.64;77.29
28630;BME280;15817;42.130;24.762;2023-03-21T08:55:17;99730.56;;;13.64;77.05
28630;BME280;15817;42.130;24.762;2023-03-21T08:57:55;99725.31;;;13.60;75.54
28630;BME280;15817;42.130;24.762;2023-03-21T09:00:21;99725.28;;;13.61;76.00
28630;BME280;15817;42.130;24.762;2023-03-21T09:02:53;99724.34;;;13.62;74.66
28630;BME280;15817;42.130;24.762;2023-03-21T09:05:22;99723.38;;;13.68;74.59
28630;BME280;15817;42.130;24.762;2023-03-21T09:08:11;99718.94;;;13.67;74.01
28630;BME280;15817;42.130;24.762;2023-03-21T09:10:56;99712.50;;;13.75;73.13
28630;BME280;15817;42.130;24.762;2023-03-21T09:13:24;99711.44;;;13.84;72.87
28630;BME280;15817;42.130;24.762;2023-03-21T09:15:51;99709.44;;;13.94;71.99
28630;BME280;15817;42.130;24.762;2023-03-21T09:18:17;99719.63;;;14.17;71.12
28630;BME280;15817;42.130;24.762;2023-03-21T09:23:49;99709.41;;;14.71;70.12
28630;BME280;15817;42.130;24.762;2023-03-21T09:26:20;99712.16;;;14.68;69.43
28630;BME280;15817;42.130;24.762;2023-03-21T09:28:54;99700.09;;;14.52;69.87
28630;BME280;15817;42.130;24.762;2023-03-21T09:31:30;99701.91;;;14.49;71.02
28630;BME280;15817;42.130;24.762;2023-03-21T09:34:15;99697.25;;;14.58;71.10
28630;BME280;15817;42.130;24.762;2023-03-21T09:36:47;99699.50;;;14.74;71.22
28630;BME280;15817;42.130;24.762;2023-03-21T09:39:13;99699.75;;;14.99;69.79
28630;BME280;15817;42.130;24.762;2023-03-21T09:47:53;99703.06;;;15.72;66.54
28630;BME280;15817;42.130;24.762;2023-03-21T09:50:35;99697.81;;;15.99;65.20
28630;BME280;15817;42.130;24.762;2023-03-21T09:53:38;99674.78;;;16.19;63.88
28630;BME280;15817;42.130;24.762;2023-03-21T09:56:33;99681.50;;;16.34;63.59
28630;BME280;15817;42.130;24.762;2023-03-21T09:59:02;99679.97;;;16.25;62.95
28630;BME280;15817;42.130;24.762;2023-03-21T10:01:38;99679.03;;;15.99;63.74
28630;BME280;15817;42.130;24.762;2023-03-21T10:04:11;99681.34;;;15.81;65.23
28630;BME280;15817;42.130;24.762;2023-03-21T10:06:42;99680.91;;;15.67;65.41
28630;BME280;15817;42.130;24.762;2023-03-21T10:09:17;99681.91;;;15.63;66.17
28630;BME280;15817;42.130;24.762;2023-03-21T10:14:43;99668.41;;;15.66;65.67
28630;BME280;15817;42.130;24.762;2023-03-21T10:17:28;99670.19;;;15.67;65.52
28630;BME280;15817;42.130;24.762;2023-03-21T10:22:42;99658.53;;;15.68;66.08
28630;BME280;15817;42.130;24.762;2023-03-21T10:25:19;99657.97;;;15.86;65.46
28630;BME280;15817;42.130;24.762;2023-03-21T10:27:50;99667.19;;;16.06;64.71
28630;BME280;15817;42.130;24.762;2023-03-21T10:32:51;99647.81;;;15.96;63.95
28630;BME280;15817;42.130;24.762;2023-03-21T10:35:21;99652.47;;;15.91;64.80
28630;BME280;15817;42.130;24.762;2023-03-21T10:37:47;99644.88;;;15.76;64.58
28630;BME280;15817;42.130;24.762;2023-03-21T10:40:18;99642.38;;;15.70;64.82
28630;BME280;15817;42.130;24.762;2023-03-21T10:42:44;99655.69;;;15.73;64.89
28630;BME280;15817;42.130;24.762;2023-03-21T10:45:18;99644.16;;;15.69;65.32
28630;BME280;15817;42.130;24.762;2023-03-21T10:47:48;99633.56;;;15.66;65.32
28630;BME280;15817;42.130;24.762;2023-03-21T10:50:17;99630.75;;;15.69;65.06
28630;BME280;15817;42.130;24.762;2023-03-21T10:56:01;99624.72;;;15.63;64.57
28630;BME280;15817;42.130;24.762;2023-03-21T10:58:40;99622.91;;;15.63;64.58
28630;BME280;15817;42.130;24.762;2023-03-21T11:01:25;99606.91;;;15.60;64.60
28630;BME280;15817;42.130;24.762;2023-03-21T11:04:28;99605.81;;;15.67;64.69
28630;BME280;15817;42.130;24.762;2023-03-21T11:07:23;99606.75;;;15.66;63.38
28630;BME280;15817;42.130;24.762;2023-03-21T11:09:59;99594.22;;;15.67;63.48
28630;BME280;15817;42.130;24.762;2023-03-21T11:12:37;99589.63;;;15.70;64.10
28630;BME280;15817;42.130;24.762;2023-03-21T11:15:30;99587.59;;;15.78;64.40
28630;BME280;15817;42.130;24.762;2023-03-21T11:18:01;99571.34;;;15.83;64.09
28630;BME280;15817;42.130;24.762;2023-03-21T11:20:42;99572.88;;;15.91;63.95
28630;BME280;15817;42.130;24.762;2023-03-21T11:23:17;99563.13;;;15.89;62.93
28630;BME280;15817;42.130;24.762;2023-03-21T11:25:51;99563.13;;;15.89;63.31
28630;BME280;15817;42.130;24.762;2023-03-21T11:28:28;99566.47;;;15.96;64.47
28630;BME280;15817;42.130;24.762;2023-03-21T11:31:02;99562.75;;;16.00;64.82
28630;BME280;15817;42.130;24.762;2023-03-21T11:33:41;99557.22;;;16.04;64.76
28630;BME280;15817;42.130;24.762;2023-03-21T11:39:12;99556.78;;;16.18;64.69
28630;BME280;15817;42.130;24.762;2023-03-21T11:41:58;99553.91;;;16.24;63.86
28630;BME280;15817;42.130;24.762;2023-03-21T11:44:41;99545.66;;;16.28;64.18
28630;BME280;15817;42.130;24.762;2023-03-21T11:47:17;99538.34;;;16.34;64.33
28630;BME280;15817;42.130;24.762;2023-03-21T11:49:45;99525.13;;;16.27;63.92
28630;BME280;15817;42.130;24.762;2023-03-21T11:52:40;99518.78;;;16.30;64.66
28630;BME280;15817;42.130;24.762;2023-03-21T11:55:19;99524.97;;;16.32;64.46
28630;BME280;15817;42.130;24.762;2023-03-21T12:01:22;99528.63;;;16.29;65.75
28630;BME280;15817;42.130;24.762;2023-03-21T12:07:34;99532.16;;;16.32;65.20
28630;BME280;15817;42.130;24.762;2023-03-21T14:41:50;99377.44;;;16.06;72.36
28630;BME280;15817;42.130;24.762;2023-03-21T14:44:33;99380.25;;;16.03;72.40
28630;BME280;15817;42.130;24.762;2023-03-21T14:51:12;99376.66;;;16.04;72.48
28630;BME280;15817;42.130;24.762;2023-03-21T15:01:53;99361.56;;;16.00;72.37
28630;BME280;15817;42.130;24.762;2023-03-21T15:08:52;99368.81;;;15.98;73.01
28630;BME280;15817;42.130;24.762;2023-03-21T15:12:01;99383.09;;;15.98;73.28
28630;BME280;15817;42.130;24.762;2023-03-21T15:15:40;99390.25;;;15.98;73.17
28630;BME280;15817;42.130;24.762;2023-03-21T15:18:30;99375.97;;;15.97;73.32
28630;BME280;15817;42.130;24.762;2023-03-21T15:25:47;99369.81;;;15.93;74.23
28630;BME280;15817;42.130;24.762;2023-03-21T15:28:15;99380.56;;;15.93;74.29
28630;BME280;15817;42.130;24.762;2023-03-21T15:37:41;99380.56;;;15.93;73.97
28630;BME280;15817;42.130;24.762;2023-03-21T15:44:55;99393.28;;;15.88;73.55
28630;BME280;15817;42.130;24.762;2023-03-21T15:51:40;99383.66;;;15.81;74.11
28630;BME280;15817;42.130;24.762;2023-03-21T15:55:18;99374.81;;;15.79;74.48
28630;BME280;15817;42.130;24.762;2023-03-21T16:06:15;99377.81;;;15.70;76.66
28630;BME280;15817;42.130;24.762;2023-03-21T18:59:49;99440.94;;;14.66;100.00
28630;BME280;15817;42.130;24.762;2023-03-21T19:03:06;99446.28;;;14.67;100.00
28630;BME280;15817;42.130;24.762;2023-03-21T19:34:12;99467.72;;;14.33;100.00
28630;BME280;15817;42.130;24.762;2023-03-21T19:56:32;99482.53;;;14.14;100.00
28630;BME280;15817;42.130;24.762;2023-03-21T19:59:29;99480.06;;;14.06;100.00
28630;BME280;15817;42.130;24.762;2023-03-21T20:02:44;99477.50;;;14.02;100.00
28630;BME280;15817;42.130;24.762;2023-03-21T20:06:33;99480.25;;;13.99;100.00
28630;BME280;15817;42.130;24.762;2023-03-21T20:21:14;99503.59;;;13.92;100.00
28630;BME280;15817;42.130;24.762;2023-03-21T20:24:31;99498.28;;;13.91;100.00
28630;BME280;15817;42.130;24.762;2023-03-21T20:27:16;99503.75;;;13.86;100.00
28630;BME280;15817;42.130;24.762;2023-03-21T20:29:53;99502.94;;;13.84;100.00
28630;BME280;15817;42.130;24.762;2023-03-21T20:32:32;99498.31;;;13.89;100.00
28630;BME280;15817;42.130;24.762;2023-03-21T20:35:36;99490.34;;;13.88;100.00
28630;BME280;15817;42.130;24.762;2023-03-21T20:38:07;99484.16;;;13.86;100.00
28630;BME280;15817;42.130;24.762;2023-03-21T20:40:58;99472.53;;;13.87;100.00
28630;BME280;15817;42.130;24.762;2023-03-21T20:44:08;99481.44;;;13.87;100.00
28630;BME280;15817;42.130;24.762;2023-03-21T20:50:48;99493.19;;;13.82;100.00
28630;BME280;15817;42.130;24.762;2023-03-21T20:54:02;99486.25;;;13.73;100.00
28630;BME280;15817;42.130;24.762;2023-03-21T20:57:12;99489.69;;;13.78;100.00
28630;BME280;15817;42.130;24.762;2023-03-21T22:33:00;99491.81;;;13.27;100.00
28630;BME280;15817;42.130;24.762;2023-03-21T22:35:48;99499.78;;;13.28;100.00
28630;BME280;15817;42.130;24.762;2023-03-21T22:38:41;99505.09;;;13.30;100.00
28630;BME280;15817;42.130;24.762;2023-03-21T22:41:18;99502.56;;;13.25;100.00
28630;BME280;15817;42.130;24.762;2023-03-21T22:56:52;99508.31;;;13.04;100.00
28630;BME280;15817;42.130;24.762;2023-03-21T22:59:35;99511.94;;;13.01;100.00
28630;BME280;15817;42.130;24.762;2023-03-21T23:02:13;99506.88;;;12.89;100.00
28630;BME280;15817;42.130;24.762;2023-03-21T23:05:27;99512.41;;;12.80;100.00
28630;BME280;15817;42.130;24.762;2023-03-21T23:07:56;99514.25;;;12.77;100.00
28630;BME280;15817;42.130;24.762;2023-03-21T23:13:37;99525.81;;;12.77;100.00
28630;BME280;15817;42.130;24.762;2023-03-21T23:16:30;99523.22;;;12.73;100.00
28630;BME280;15817;42.130;24.762;2023-03-21T23:19:26;99517.03;;;12.70;100.00
28630;BME280;15817;42.130;24.762;2023-03-21T23:22:22;99515.34;;;12.66;100.00
28630;BME280;15817;42.130;24.762;2023-03-21T23:25:39;99506.41;;;12.69;100.00
28630;BME280;15817;42.130;24.762;2023-03-21T23:28:41;99499.31;;;12.68;100.00
28630;BME280;15817;42.130;24.762;2023-03-21T23:54:58;99501.63;;;12.40;100.00
28630;BME280;15817;42.130;24.762;2023-03-21T23:57:39;99505.19;;;12.41;100.00
